createdAt,value
2022-10-31T00:00:51.336Z,63.52
2022-10-31T00:03:19.520Z,63.77
2022-10-31T00:05:49.600Z,63.93
2022-10-31T00:08:18.277Z,63.42
2022-10-31T00:10:47.941Z,63.52
2022-10-31T00:13:16.674Z,63.96
2022-10-31T00:15:44.793Z,64.08
2022-10-31T00:18:13.008Z,63.70
2022-10-31T00:20:41.886Z,64.15
2022-10-31T00:23:09.876Z,63.67
2022-10-31T00:25:39.849Z,63.91
2022-10-31T00:28:11.478Z,64.19
2022-10-31T00:30:39.507Z,64.05
2022-10-31T00:33:07.345Z,64.05
2022-10-31T00:35:35.382Z,64.20
2022-10-31T00:38:03.404Z,64.46
2022-10-31T00:40:31.314Z,64.31
2022-10-31T00:42:59.467Z,64.64
2022-10-31T00:45:28.972Z,64.28
2022-10-31T00:47:57.735Z,64.27
2022-10-31T00:50:25.868Z,64.50
2022-10-31T00:52:53.633Z,64.56
2022-10-31T00:55:21.584Z,64.94
2022-10-31T00:57:49.774Z,64.69
2022-10-31T01:00:18.233Z,64.65
2022-10-31T01:02:47.548Z,64.71
2022-10-31T01:05:15.657Z,64.87
2022-10-31T01:07:43.986Z,64.71
2022-10-31T01:10:13.422Z,65.03
2022-10-31T01:12:42.738Z,65.11
2022-10-31T01:15:11.688Z,64.94
2022-10-31T01:17:39.916Z,65.01
2022-10-31T01:20:10.980Z,65.40
2022-10-31T01:22:38.911Z,65.05
2022-10-31T01:25:08.503Z,65.29
2022-10-31T01:27:36.509Z,65.05
2022-10-31T01:30:04.756Z,65.62
2022-10-31T01:32:32.611Z,65.46
2022-10-31T01:35:00.384Z,65.72
2022-10-31T01:37:29.690Z,65.35
2022-10-31T01:39:57.477Z,65.86
2022-10-31T01:42:25.675Z,65.75
2022-10-31T01:44:57.824Z,65.65
2022-10-31T01:47:34.736Z,66.11
2022-10-31T01:50:06.018Z,66.05
2022-10-31T01:52:40.993Z,65.65
2022-10-31T01:55:12.671Z,65.59
2022-10-31T01:57:44.335Z,65.89
2022-10-31T02:00:13.674Z,65.74
2022-10-31T02:02:41.986Z,65.97
2022-10-31T02:05:12.509Z,65.79
2022-10-31T02:07:45.567Z,66.09
2022-10-31T02:10:13.507Z,66.56
2022-10-31T02:12:42.794Z,66.05
2022-10-31T02:15:11.983Z,66.37
2022-10-31T02:17:42.314Z,66.34
2022-10-31T02:20:18.436Z,66.33
2022-10-31T02:23:13.705Z,66.29
2022-10-31T02:26:04.319Z,66.46
2022-10-31T02:28:47.707Z,66.28
2022-10-31T02:31:30.389Z,66.46
2022-10-31T02:34:03.752Z,66.81
2022-10-31T02:36:41.135Z,66.67
2022-10-31T02:39:15.319Z,66.85
2022-10-31T02:41:51.169Z,66.85
2022-10-31T02:44:29.230Z,67.09
2022-10-31T02:47:04.635Z,66.81
2022-10-31T02:49:40.650Z,66.69
2022-10-31T02:52:16.874Z,66.89
2022-10-31T02:54:48.574Z,67.13
2022-10-31T02:57:20.706Z,67.04
2022-10-31T02:59:53.899Z,66.99
2022-10-31T03:02:42.706Z,67.07
2022-10-31T03:05:31.397Z,67.23
2022-10-31T03:08:07.288Z,67.55
2022-10-31T03:10:43.914Z,67.62
2022-10-31T03:13:18.840Z,67.42
2022-10-31T03:15:51.391Z,67.74
2022-10-31T03:18:29.049Z,67.49
2022-10-31T03:21:03.548Z,67.45
2022-10-31T03:23:34.265Z,67.25
2022-10-31T03:26:04.639Z,68.03
2022-10-31T03:28:38.488Z,67.74
2022-10-31T03:31:08.295Z,68.13
2022-10-31T03:33:40.010Z,67.67
2022-10-31T03:36:12.924Z,68.25
2022-10-31T03:38:43.224Z,68.32
2022-10-31T03:41:16.003Z,68.49
2022-10-31T03:43:51.923Z,68.42
2022-10-31T03:46:19.917Z,68.54
2022-10-31T03:48:49.878Z,68.60
2022-10-31T03:51:24.782Z,68.39
2022-10-31T03:53:58.446Z,68.45
2022-10-31T03:56:34.509Z,68.78
2022-10-31T03:59:07.679Z,69.18
2022-10-31T04:01:40.846Z,68.85
2022-10-31T04:04:10.983Z,69.06
2022-10-31T04:06:42.128Z,68.86
2022-10-31T04:09:12.037Z,68.76
2022-10-31T04:11:46.057Z,69.27
2022-10-31T04:14:14.576Z,69.28
2022-10-31T04:16:45.279Z,69.36
2022-10-31T04:19:15.270Z,69.26
2022-10-31T04:21:44.288Z,69.29
2022-10-31T04:24:12.850Z,69.58
2022-10-31T04:26:40.699Z,69.49
2022-10-31T04:29:08.472Z,69.53
2022-10-31T04:31:36.339Z,69.62
2022-10-31T04:34:04.457Z,69.82
2022-10-31T04:36:33.624Z,69.78
2022-10-31T04:39:01.403Z,69.94
2022-10-31T04:41:29.351Z,70.02
2022-10-31T04:43:57.136Z,69.86
2022-10-31T04:46:25.134Z,69.99
2022-10-31T04:48:53.273Z,70.19
2022-10-31T04:51:21.161Z,70.30
2022-10-31T04:53:50.400Z,70.26
2022-10-31T04:56:18.246Z,70.29
2022-10-31T04:58:46.113Z,70.22
2022-10-31T05:01:14.348Z,70.50
2022-10-31T05:03:42.415Z,70.63
2022-10-31T05:06:10.148Z,70.49
2022-10-31T05:08:37.919Z,70.66
2022-10-31T05:11:07.798Z,70.62
2022-10-31T05:13:35.674Z,70.70
2022-10-31T05:16:04.367Z,70.82
2022-10-31T05:18:32.187Z,70.88
2022-10-31T05:20:59.921Z,70.90
2022-10-31T05:23:27.751Z,71.07
2022-10-31T05:25:55.637Z,70.97
2022-10-31T05:28:24.919Z,71.12
2022-10-31T05:30:52.761Z,71.31
2022-10-31T05:33:20.748Z,71.40
2022-10-31T05:35:48.890Z,71.45
2022-10-31T05:38:16.657Z,71.20
2022-10-31T05:40:44.655Z,71.69
2022-10-31T05:43:12.489Z,71.47
2022-10-31T05:45:41.791Z,71.79
2022-10-31T05:48:10.427Z,71.96
2022-10-31T05:50:38.436Z,72.23
2022-10-31T05:53:07.611Z,71.86
2022-10-31T05:55:35.432Z,72.32
2022-10-31T05:58:03.581Z,71.90
2022-10-31T06:00:32.969Z,71.90
2022-10-31T06:03:03.201Z,72.27
2022-10-31T06:05:31.888Z,72.92
2022-10-31T06:08:00.577Z,73.11
2022-10-31T06:10:29.149Z,72.62
2022-10-31T06:12:57.214Z,73.03
2022-10-31T06:15:25.208Z,73.11
2022-10-31T06:18:05.831Z,73.08
2022-10-31T06:20:34.477Z,72.97
2022-10-31T06:23:02.972Z,73.56
2022-10-31T06:25:31.646Z,73.61
2022-10-31T06:27:59.455Z,73.57
2022-10-31T06:30:27.533Z,73.68
2022-10-31T06:32:55.426Z,73.68
2022-10-31T06:35:24.800Z,73.47
2022-10-31T06:37:53.912Z,74.00
2022-10-31T06:40:21.758Z,73.98
2022-10-31T06:42:49.654Z,74.21
2022-10-31T06:45:17.695Z,74.25
2022-10-31T06:48:15.384Z,74.36
2022-10-31T06:50:42.151Z,74.44
2022-10-31T06:55:44.266Z,74.67
2022-10-31T06:58:13.002Z,74.77
2022-10-31T07:00:45.035Z,74.60
2022-10-31T07:03:14.598Z,74.99
2022-10-31T07:05:44.350Z,74.82
2022-10-31T07:08:14.308Z,74.55
2022-10-31T07:10:44.177Z,75.02
2022-10-31T07:13:14.932Z,74.79
2022-10-31T07:15:44.229Z,75.01
2022-10-31T07:18:14.148Z,75.29
2022-10-31T07:20:43.461Z,75.24
2022-10-31T07:23:12.610Z,75.26
2022-10-31T07:25:40.596Z,75.36
2022-10-31T07:28:09.237Z,75.39
2022-10-31T07:30:37.243Z,75.62
2022-10-31T07:33:05.847Z,75.69
2022-10-31T07:35:35.945Z,75.72
2022-10-31T07:38:12.579Z,75.49
2022-10-31T07:40:40.764Z,75.61
2022-10-31T07:43:13.945Z,76.04
2022-10-31T07:45:42.755Z,75.79
2022-10-31T07:48:10.618Z,75.96
2022-10-31T07:50:38.377Z,76.08
2022-10-31T07:53:07.794Z,76.26
2022-10-31T07:55:37.662Z,76.10
2022-10-31T07:58:07.051Z,76.16
2022-10-31T08:00:36.949Z,76.51
2022-10-31T08:03:06.550Z,76.35
2022-10-31T08:05:35.651Z,76.39
2022-10-31T08:08:04.241Z,76.69
2022-10-31T08:10:32.613Z,76.69
2022-10-31T08:13:03.125Z,76.68
2022-10-31T08:15:31.180Z,76.58
2022-10-31T08:17:59.228Z,76.47
2022-10-31T08:20:27.343Z,76.91
2022-10-31T08:22:58.868Z,76.97
2022-10-31T08:25:29.876Z,77.45
2022-10-31T08:28:02.344Z,77.17
2022-10-31T08:30:32.620Z,77.13
2022-10-31T08:33:04.328Z,77.19
2022-10-31T08:35:33.070Z,77.14
2022-10-31T08:38:01.850Z,76.98
2022-10-31T08:40:31.809Z,77.24
2022-10-31T08:43:02.821Z,77.44
2022-10-31T08:45:31.772Z,77.06
2022-10-31T08:48:01.173Z,77.23
2022-10-31T08:50:30.194Z,77.72
2022-10-31T08:53:06.281Z,77.49
2022-10-31T08:55:35.470Z,77.59
2022-10-31T08:58:05.759Z,78.01
2022-10-31T09:00:33.950Z,78.31
2022-10-31T09:03:03.724Z,77.41
2022-10-31T09:05:32.682Z,77.65
2022-10-31T09:08:02.536Z,78.01
2022-10-31T09:10:33.019Z,77.94
2022-10-31T09:13:02.224Z,78.30
2022-10-31T09:15:32.506Z,78.41
2022-10-31T09:18:02.098Z,78.83
2022-10-31T09:20:30.854Z,78.20
2022-10-31T09:22:59.732Z,78.19
2022-10-31T09:25:28.513Z,78.82
2022-10-31T09:27:59.012Z,78.40
2022-10-31T09:30:28.572Z,78.42
2022-10-31T09:33:02.383Z,78.73
2022-10-31T09:35:30.948Z,78.53
2022-10-31T09:37:59.859Z,78.63
2022-10-31T09:40:34.748Z,79.16
2022-10-31T09:43:11.185Z,78.87
2022-10-31T09:45:45.721Z,78.50
2022-10-31T09:49:02.469Z,79.07
2022-10-31T09:51:35.395Z,78.79
2022-10-31T09:54:09.283Z,79.21
2022-10-31T09:56:38.133Z,79.31
2022-10-31T09:59:13.291Z,79.29
2022-10-31T10:01:48.217Z,79.16
2022-10-31T10:04:36.852Z,79.27
2022-10-31T10:07:13.828Z,79.63
2022-10-31T10:09:41.893Z,78.94
2022-10-31T10:12:18.777Z,79.17
2022-10-31T10:14:59.707Z,79.53
2022-10-31T10:17:38.582Z,79.77
2022-10-31T10:20:28.140Z,79.19
2022-10-31T10:23:09.860Z,79.23
2022-10-31T10:25:41.891Z,79.40
2022-10-31T10:28:19.777Z,79.97
2022-10-31T10:30:51.143Z,79.81
2022-10-31T10:33:23.649Z,79.38
2022-10-31T10:35:56.120Z,79.94
2022-10-31T10:38:29.489Z,79.91
2022-10-31T10:40:57.856Z,79.98
2022-10-31T10:43:31.565Z,80.08
2022-10-31T10:46:32.542Z,79.77
2022-10-31T10:49:11.664Z,80.04
2022-10-31T10:51:58.212Z,80.17
2022-10-31T10:54:52.773Z,80.05
2022-10-31T10:57:40.276Z,80.06
2022-10-31T11:00:19.153Z,80.17
2022-10-31T11:02:49.033Z,80.12
2022-10-31T11:05:25.058Z,80.11
2022-10-31T11:07:54.600Z,80.26
2022-10-31T11:10:22.661Z,80.04
2022-10-31T11:13:04.030Z,80.57
2022-10-31T11:15:35.906Z,80.17
2022-10-31T11:18:04.070Z,80.47
2022-10-31T11:20:35.680Z,80.54
2022-10-31T11:23:19.665Z,80.66
2022-10-31T11:25:53.001Z,80.63
2022-10-31T11:28:20.864Z,80.50
2022-10-31T11:30:52.051Z,80.60
2022-10-31T11:33:23.144Z,80.51
2022-10-31T11:35:55.032Z,80.35
2022-10-31T11:38:33.993Z,80.56
2022-10-31T11:41:11.713Z,80.55
2022-10-31T11:43:40.905Z,80.58
2022-10-31T11:46:13.695Z,80.61
2022-10-31T11:48:41.629Z,80.49
2022-10-31T11:51:09.833Z,80.65
2022-10-31T11:53:38.960Z,80.92
2022-10-31T11:56:16.825Z,80.95
2022-10-31T11:58:46.253Z,80.96
2022-10-31T12:04:14.261Z,80.58
2022-10-31T12:06:44.361Z,81.08
2022-10-31T12:09:21.474Z,80.78
2022-10-31T12:12:01.543Z,80.83
2022-10-31T12:14:38.691Z,80.82
2022-10-31T12:17:15.756Z,80.96
2022-10-31T12:19:55.261Z,80.87
2022-10-31T12:22:32.642Z,81.05
2022-10-31T12:25:26.348Z,80.82
2022-10-31T12:28:09.231Z,80.63
2022-10-31T12:30:50.604Z,80.78
2022-10-31T12:33:30.545Z,80.93
2022-10-31T12:36:15.210Z,80.84
2022-10-31T12:39:04.185Z,80.52
2022-10-31T12:41:54.725Z,80.60
2022-10-31T12:45:02.510Z,80.82
2022-10-31T12:48:00.441Z,80.45
2022-10-31T12:50:45.681Z,80.55
2022-10-31T12:53:30.403Z,80.71
2022-10-31T12:56:11.725Z,80.34
2022-10-31T12:58:46.090Z,80.73
2022-10-31T13:01:19.051Z,80.69
2022-10-31T13:03:53.528Z,80.55
2022-10-31T13:06:26.481Z,80.39
2022-10-31T13:08:58.888Z,80.29
2022-10-31T13:11:31.722Z,80.29
2022-10-31T13:14:07.569Z,80.38
2022-10-31T13:16:38.723Z,80.55
2022-10-31T13:19:16.010Z,80.53
2022-10-31T13:21:52.031Z,80.36
2022-10-31T13:24:24.713Z,80.21
2022-10-31T13:26:56.087Z,80.26
2022-10-31T13:29:31.812Z,80.19
2022-10-31T13:32:02.513Z,80.15
2022-10-31T13:34:39.646Z,80.29
2022-10-31T13:37:19.598Z,80.08
2022-10-31T13:39:58.606Z,80.19
2022-10-31T13:42:39.210Z,80.09
2022-10-31T13:45:16.916Z,80.31
2022-10-31T13:47:45.425Z,80.11
2022-10-31T13:50:41.402Z,80.33
2022-10-31T13:53:21.599Z,80.29
2022-10-31T13:55:50.729Z,80.32
2022-10-31T13:58:25.280Z,80.12
2022-10-31T14:01:25.040Z,80.08
2022-10-31T14:04:12.421Z,79.99
2022-10-31T14:06:46.509Z,80.32
2022-10-31T14:09:24.970Z,80.08
2022-10-31T14:11:54.488Z,80.24
2022-10-31T14:14:25.282Z,80.05
2022-10-31T14:17:00.189Z,80.01
2022-10-31T14:19:28.934Z,80.00
2022-10-31T14:21:56.918Z,80.22
2022-10-31T14:24:37.375Z,79.96
2022-10-31T14:27:27.489Z,79.92
2022-10-31T14:29:55.648Z,79.89
2022-10-31T14:32:26.318Z,80.29
2022-10-31T14:34:56.095Z,80.18
2022-10-31T14:37:37.391Z,80.12
2022-10-31T14:40:23.028Z,80.13
2022-10-31T14:43:09.294Z,80.01
2022-10-31T14:45:46.006Z,80.08
2022-10-31T14:48:31.966Z,80.16
2022-10-31T14:51:04.443Z,79.99
2022-10-31T14:53:36.123Z,79.84
2022-10-31T14:56:07.144Z,80.09
2022-10-31T14:58:40.603Z,80.09
2022-10-31T15:01:09.566Z,80.30
2022-10-31T15:03:48.367Z,80.11
2022-10-31T15:06:39.120Z,80.04
2022-10-31T15:09:06.998Z,80.07
2022-10-31T15:11:39.814Z,80.19
2022-10-31T15:14:23.629Z,80.15
2022-10-31T15:16:52.350Z,80.08
2022-10-31T15:19:25.053Z,80.14
2022-10-31T15:21:55.329Z,79.85
2022-10-31T15:24:26.499Z,80.02
2022-10-31T15:26:57.738Z,80.06
2022-10-31T15:29:30.571Z,80.35
2022-10-31T15:32:00.094Z,80.05
2022-10-31T15:34:37.664Z,80.29
2022-10-31T15:37:05.568Z,80.15
2022-10-31T15:39:34.422Z,80.01
2022-10-31T15:42:02.754Z,80.30
2022-10-31T15:44:33.933Z,79.82
2022-10-31T15:47:04.348Z,80.36
2022-10-31T15:49:37.644Z,80.26
2022-10-31T15:52:10.080Z,80.58
2022-10-31T15:54:46.607Z,80.26
2022-10-31T15:57:14.846Z,79.96
2022-10-31T15:59:47.051Z,80.30
2022-10-31T16:02:16.847Z,79.98
2022-10-31T16:04:55.172Z,80.40
2022-10-31T16:07:24.412Z,80.65
2022-10-31T16:09:55.320Z,80.48
2022-10-31T16:12:24.608Z,80.13
2022-10-31T16:14:55.356Z,80.02
2022-10-31T16:17:26.462Z,80.44
2022-10-31T16:19:59.110Z,80.67
2022-10-31T16:22:30.078Z,80.33
2022-10-31T16:25:03.754Z,80.23
2022-10-31T16:27:34.314Z,80.65
2022-10-31T16:30:05.327Z,80.48
2022-10-31T16:32:36.455Z,80.80
2022-10-31T16:35:25.744Z,80.51
2022-10-31T16:37:54.173Z,80.78
2022-10-31T16:40:22.600Z,80.49
2022-10-31T16:42:51.112Z,80.40
2022-10-31T16:45:21.574Z,80.69
2022-10-31T16:47:50.387Z,80.81
2022-10-31T16:50:24.850Z,80.20
2022-10-31T16:53:12.811Z,80.48
2022-10-31T16:55:46.999Z,80.89
2022-10-31T16:58:19.588Z,80.60
2022-10-31T17:00:48.001Z,80.47
2022-10-31T17:03:16.148Z,80.90
2022-10-31T17:05:45.593Z,81.10
2022-10-31T17:08:13.636Z,80.93
2022-10-31T17:19:02.076Z,81.15
2022-10-31T17:21:32.457Z,81.25
2022-10-31T17:24:00.629Z,81.39
2022-10-31T17:26:28.447Z,81.10
2022-10-31T17:28:56.925Z,81.49
2022-10-31T17:31:36.321Z,81.38
2022-10-31T17:34:05.404Z,81.27
2022-10-31T17:36:35.442Z,81.05
2022-10-31T17:39:05.515Z,81.12
2022-10-31T17:41:33.290Z,81.27
2022-10-31T17:44:01.597Z,81.32
2022-10-31T17:46:29.451Z,81.96
2022-10-31T17:48:57.559Z,81.25
2022-10-31T17:51:25.426Z,81.32
2022-10-31T17:53:54.679Z,81.73
2022-10-31T17:56:22.687Z,81.32
2022-10-31T17:58:50.507Z,81.78
2022-10-31T18:01:19.858Z,81.66
2022-10-31T18:03:47.800Z,81.83
2022-10-31T18:06:16.959Z,81.56
2022-10-31T18:08:45.750Z,81.53
2022-10-31T18:11:18.450Z,81.38
2022-10-31T18:13:46.399Z,82.04
2022-10-31T18:16:16.388Z,81.85
2022-10-31T18:18:44.516Z,81.49
2022-10-31T18:21:12.283Z,82.04
2022-10-31T18:23:40.051Z,82.15
2022-10-31T18:26:08.122Z,81.86
2022-10-31T18:28:37.459Z,81.59
2022-10-31T18:31:05.641Z,82.42
2022-10-31T18:33:33.618Z,81.98
2022-10-31T18:36:06.577Z,82.01
2022-10-31T18:38:35.064Z,82.13
2022-10-31T18:41:02.974Z,81.79
2022-10-31T18:43:33.515Z,81.73
2022-10-31T18:46:03.668Z,81.97
2022-10-31T18:48:32.299Z,81.76
2022-10-31T18:53:32.301Z,82.29
2022-10-31T18:56:00.213Z,81.82
2022-10-31T18:58:29.136Z,81.99
2022-10-31T19:00:57.276Z,82.08
2022-10-31T19:03:27.399Z,82.50
2022-10-31T19:05:56.633Z,82.56
2022-10-31T19:08:24.671Z,82.30
2022-10-31T19:10:52.701Z,82.62
2022-10-31T19:13:20.533Z,82.59
2022-10-31T19:15:48.855Z,82.27
2022-10-31T19:18:16.604Z,82.68
2022-10-31T19:20:45.775Z,82.57
2022-10-31T19:23:13.702Z,82.49
2022-10-31T19:25:41.971Z,82.33
2022-10-31T19:28:09.775Z,82.33
2022-10-31T19:30:37.713Z,82.36
2022-10-31T19:33:05.757Z,82.90
2022-10-31T19:35:33.594Z,82.33
2022-10-31T19:38:03.548Z,82.82
2022-10-31T19:40:31.551Z,82.15
2022-10-31T19:42:59.916Z,82.12
2022-10-31T19:45:27.828Z,82.81
2022-10-31T19:47:55.753Z,83.14
2022-10-31T19:50:23.907Z,82.40
2022-10-31T19:52:52.132Z,82.64
2022-10-31T19:55:21.939Z,83.11
2022-10-31T19:58:01.311Z,83.30
2022-10-31T20:00:31.628Z,82.34
2022-10-31T20:03:00.996Z,82.72
2022-10-31T20:05:29.197Z,83.08
2022-10-31T20:07:57.664Z,82.78
2022-10-31T20:10:26.936Z,82.46
2022-10-31T20:12:55.157Z,82.59
2022-10-31T20:15:23.215Z,82.60
2022-10-31T20:17:51.136Z,82.56
2022-10-31T20:20:19.212Z,82.19
2022-10-31T20:22:49.764Z,82.64
2022-10-31T20:25:18.330Z,82.36
2022-10-31T20:27:47.592Z,82.83
2022-10-31T20:30:15.521Z,83.09
2022-10-31T20:32:47.539Z,82.97
2022-10-31T20:35:18.523Z,82.46
2022-10-31T20:37:46.315Z,83.35
2022-10-31T20:40:14.334Z,82.76
2022-10-31T20:42:42.321Z,82.65
2022-10-31T20:45:12.628Z,83.03
2022-10-31T20:47:40.676Z,83.27
2022-10-31T20:50:09.323Z,82.89
2022-10-31T20:52:37.406Z,82.56
2022-10-31T20:55:06.623Z,83.06
2022-10-31T20:57:35.197Z,82.83
2022-10-31T21:00:04.489Z,83.05
2022-10-31T21:02:33.917Z,83.50
2022-10-31T21:05:03.628Z,83.04
2022-10-31T21:07:32.244Z,83.54
2022-10-31T21:10:00.128Z,83.49
2022-10-31T21:12:28.178Z,82.89
2022-10-31T21:14:56.264Z,82.74
2022-10-31T21:17:24.031Z,83.11
2022-10-31T21:19:53.116Z,83.46
2022-10-31T21:22:21.277Z,83.25
2022-10-31T21:24:49.085Z,83.03
2022-10-31T21:27:16.819Z,83.47
2022-10-31T21:29:44.764Z,83.29
2022-10-31T21:32:12.565Z,82.87
2022-10-31T21:34:40.346Z,83.18
2022-10-31T21:37:09.899Z,82.96
2022-10-31T21:39:38.558Z,83.50
2022-10-31T21:42:06.386Z,83.16
2022-10-31T21:44:34.296Z,83.18
2022-10-31T21:47:02.109Z,83.04
2022-10-31T21:49:30.038Z,83.60
2022-10-31T21:51:58.062Z,83.23
2022-10-31T21:54:29.993Z,83.47
2022-10-31T21:56:59.221Z,83.22
2022-10-31T21:59:27.023Z,83.78
2022-10-31T22:01:56.958Z,83.63
2022-10-31T22:04:25.396Z,83.30
2022-10-31T22:06:53.160Z,83.58
2022-10-31T22:09:21.285Z,83.70
2022-10-31T22:11:50.536Z,83.25
2022-10-31T22:14:18.667Z,83.36
2022-10-31T22:16:46.916Z,83.91
2022-10-31T22:19:15.487Z,83.63
2022-10-31T22:21:44.711Z,83.47
2022-10-31T22:24:13.083Z,83.68
2022-10-31T22:26:41.312Z,83.82
2022-10-31T22:29:14.477Z,83.79
2022-10-31T22:31:44.928Z,84.04
2022-10-31T22:34:13.833Z,83.94
2022-10-31T22:36:42.319Z,83.69
2022-10-31T22:39:12.111Z,83.93
2022-10-31T22:41:40.427Z,84.06
2022-10-31T22:44:10.450Z,83.95
2022-10-31T22:46:40.658Z,83.66
2022-10-31T22:49:11.229Z,83.42
2022-10-31T22:51:40.841Z,84.29
2022-10-31T22:54:12.545Z,83.94
2022-10-31T22:56:40.640Z,84.21
2022-10-31T22:59:12.227Z,83.69
2022-10-31T23:01:40.829Z,84.49
2022-10-31T23:06:43.083Z,84.14
2022-10-31T23:09:14.535Z,84.28
2022-10-31T23:11:42.604Z,84.12
2022-10-31T23:14:16.342Z,84.01
2022-10-31T23:16:47.125Z,84.03
2022-10-31T23:19:17.308Z,84.49
2022-10-31T23:21:57.362Z,84.28
2022-10-31T23:24:33.076Z,84.19
2022-10-31T23:27:10.727Z,84.47
2022-10-31T23:29:46.633Z,84.35
2022-10-31T23:32:18.324Z,84.02
2022-10-31T23:34:46.958Z,84.28
2022-10-31T23:37:15.517Z,84.28
2022-10-31T23:39:43.518Z,84.46
2022-10-31T23:42:11.762Z,84.36
2022-10-31T23:44:39.524Z,84.36
2022-10-31T23:47:09.606Z,84.37
2022-10-31T23:49:37.407Z,84.35
2022-10-31T23:52:06.583Z,84.37
2022-10-31T23:54:34.923Z,84.55
2022-10-31T23:57:03.244Z,84.58
2022-10-31T23:59:31.721Z,84.36
